EIN209 EGCC-EIDW
Flight info
| Callsign | EIN209 |
|---|---|
| Flight time | 0h 34m |
| Altitude | 28000 |
| Route | EKLAD Y53 WAL L10 PENIL M144 BAGSO BAGSO3R |
| Aircraft | A320/M-SDE3FGHIRWY/LB1 |
Departure
| Time | 2026-05-04 16:28 |
|---|---|
| Airport | Manchester Airport (EGCC) |
Arrival
| Time | 2026-05-04 17:02 |
|---|---|
| Airport | Dublin Airport (EIDW) |
| Time | Latitude | Longitude | Altitude | Speed | Heading |
|---|---|---|---|---|---|
| 2026-05-04 15:56 | 53.36948 | -2.28696 | 255 ft | 0 kts | 135° |
| 2026-05-04 16:10 | 53.36956 | -2.28709 | 255 ft | 4 kts | 135° |
| 2026-05-04 16:11 | 53.36984 | -2.28745 | 255 ft | 4 kts | 225° |
| 2026-05-04 16:11 | 53.36965 | -2.28776 | 255 ft | 4 kts | 225° |
| 2026-05-04 16:12 | 53.36953 | -2.28796 | 255 ft | 0 kts | 225° |
| 2026-05-04 16:14 | 53.36909 | -2.28869 | 255 ft | 11 kts | 224° |
| 2026-05-04 16:14 | 53.36768 | -2.29040 | 255 ft | 15 kts | 191° |
| 2026-05-04 16:15 | 53.36685 | -2.28940 | 255 ft | 0 kts | 135° |
| 2026-05-04 16:16 | 53.36589 | -2.28810 | 255 ft | 19 kts | 117° |
| 2026-05-04 16:17 | 53.36414 | -2.28458 | 255 ft | 21 kts | 117° |
| 2026-05-04 16:18 | 53.36095 | -2.27892 | 255 ft | 24 kts | 141° |
| 2026-05-04 16:18 | 53.35970 | -2.27741 | 255 ft | 19 kts | 155° |
| 2026-05-04 16:19 | 53.35674 | -2.27595 | 246 ft | 7 kts | 145° |
| 2026-05-04 16:19 | 53.35648 | -2.27560 | 246 ft | 0 kts | 140° |
| 2026-05-04 16:20 | 53.35647 | -2.27558 | 246 ft | 1 kts | 140° |
| 2026-05-04 16:21 | 53.35580 | -2.27467 | 245 ft | 0 kts | 141° |
| 2026-05-04 16:22 | 53.35573 | -2.27459 | 245 ft | 0 kts | 141° |
| 2026-05-04 16:26 | 53.35179 | -2.27432 | 236 ft | 25 kts | 230° |
| 2026-05-04 16:26 | 53.34900 | -2.27890 | 228 ft | 11 kts | 143° |
| 2026-05-04 16:27 | 53.34794 | -2.27816 | 223 ft | 17 kts | 189° |
| 2026-05-04 16:28 | 53.34047 | -2.29309 | 231 ft | 137 kts | 231° |
| 2026-05-04 16:28 | 53.32099 | -2.33483 | 1833 ft | 166 kts | 236° |
| 2026-05-04 16:29 | 53.31791 | -2.42902 | 3492 ft | 254 kts | 281° |
| 2026-05-04 16:30 | 53.31565 | -2.51948 | 5746 ft | 266 kts | 269° |
| 2026-05-04 16:31 | 53.31562 | -2.58192 | 7519 ft | 272 kts | 270° |
| 2026-05-04 16:31 | 53.31541 | -2.67843 | 10110 ft | 282 kts | 270° |
| 2026-05-04 16:32 | 53.31511 | -2.78731 | 11346 ft | 333 kts | 270° |
| 2026-05-04 16:33 | 53.31505 | -2.86578 | 12800 ft | 342 kts | 270° |
| 2026-05-04 16:33 | 53.32073 | -2.94457 | 14144 ft | 353 kts | 294° |
| 2026-05-04 16:34 | 53.34509 | -3.01691 | 15392 ft | 361 kts | 300° |
| 2026-05-04 16:34 | 53.35789 | -3.05339 | 16027 ft | 365 kts | 300° |
| 2026-05-04 16:35 | 53.39683 | -3.16528 | 17863 ft | 377 kts | 300° |
| 2026-05-04 16:35 | 53.43302 | -3.27073 | 19362 ft | 387 kts | 300° |
| 2026-05-04 16:36 | 53.44641 | -3.31021 | 19900 ft | 391 kts | 300° |
| 2026-05-04 16:36 | 53.47066 | -3.39282 | 20913 ft | 401 kts | 287° |
| 2026-05-04 16:37 | 53.48637 | -3.48366 | 21948 ft | 409 kts | 287° |
| 2026-05-04 16:37 | 53.49419 | -3.52969 | 22455 ft | 412 kts | 287° |
| 2026-05-04 16:37 | 53.50997 | -3.62310 | 23440 ft | 419 kts | 287° |
| 2026-05-04 16:38 | 53.52604 | -3.71840 | 24240 ft | 426 kts | 287° |
| 2026-05-04 16:39 | 53.55038 | -3.86300 | 25387 ft | 434 kts | 287° |
| 2026-05-04 16:39 | 53.56671 | -3.96137 | 26123 ft | 439 kts | 287° |
| 2026-05-04 16:40 | 53.58313 | -4.06110 | 26839 ft | 444 kts | 288° |
| 2026-05-04 16:40 | 53.59974 | -4.16199 | 27518 ft | 449 kts | 288° |
| 2026-05-04 16:41 | 53.61645 | -4.26365 | 28053 ft | 448 kts | 288° |
| 2026-05-04 16:41 | 53.64060 | -4.41287 | 28068 ft | 437 kts | 288° |
| 2026-05-04 16:42 | 53.65049 | -4.54916 | 28070 ft | 450 kts | 276° |
| 2026-05-04 16:43 | 53.65411 | -4.65491 | 28000 ft | 451 kts | 275° |
| 2026-05-04 16:43 | 53.65762 | -4.76042 | 26387 ft | 449 kts | 275° |
| 2026-05-04 16:43 | 53.65934 | -4.81276 | 25728 ft | 445 kts | 275° |
| 2026-05-04 16:44 | 53.66597 | -5.01759 | 23255 ft | 430 kts | 275° |
| 2026-05-04 16:45 | 53.66907 | -5.11671 | 22051 ft | 421 kts | 274° |
| 2026-05-04 16:46 | 53.67340 | -5.26248 | 20434 ft | 409 kts | 274° |
| 2026-05-04 16:46 | 53.67607 | -5.35736 | 19446 ft | 401 kts | 274° |
| 2026-05-04 16:47 | 53.67858 | -5.45042 | 18497 ft | 393 kts | 274° |
| 2026-05-04 16:47 | 53.67491 | -5.54104 | 17084 ft | 382 kts | 258° |
| 2026-05-04 16:48 | 53.65830 | -5.66695 | 15363 ft | 355 kts | 258° |
| 2026-05-04 16:48 | 53.65288 | -5.70748 | 14900 ft | 353 kts | 258° |
| 2026-05-04 16:49 | 53.64219 | -5.78783 | 13986 ft | 349 kts | 258° |
| 2026-05-04 16:49 | 53.63168 | -5.86668 | 13024 ft | 344 kts | 258° |
| 2026-05-04 16:50 | 53.62130 | -5.94470 | 12088 ft | 338 kts | 258° |
| 2026-05-04 16:50 | 53.61105 | -6.02135 | 11143 ft | 333 kts | 258° |
| 2026-05-04 16:51 | 53.60085 | -6.09681 | 10403 ft | 322 kts | 257° |
| 2026-05-04 16:51 | 53.59593 | -6.13282 | 10283 ft | 309 kts | 257° |
| 2026-05-04 16:51 | 53.58667 | -6.20073 | 9965 ft | 289 kts | 257° |
| 2026-05-04 16:52 | 53.57765 | -6.26673 | 9155 ft | 286 kts | 257° |
| 2026-05-04 16:52 | 53.57319 | -6.29909 | 8875 ft | 280 kts | 257° |
| 2026-05-04 16:53 | 53.56475 | -6.36037 | 8603 ft | 258 kts | 258° |
| 2026-05-04 16:53 | 53.55786 | -6.44678 | 7736 ft | 245 kts | 264° |
| 2026-05-04 16:54 | 53.55585 | -6.47511 | 7377 ft | 244 kts | 263° |
| 2026-05-04 16:55 | 53.54779 | -6.58642 | 6060 ft | 234 kts | 263° |
| 2026-05-04 16:55 | 53.54177 | -6.63941 | 5392 ft | 226 kts | 243° |
| 2026-05-04 16:56 | 53.51959 | -6.67066 | 4867 ft | 207 kts | 196° |
| 2026-05-04 16:56 | 53.47868 | -6.67089 | 4467 ft | 197 kts | 158° |
| 2026-05-04 16:57 | 53.46708 | -6.65871 | 4373 ft | 199 kts | 136° |
| 2026-05-04 16:57 | 53.45512 | -6.61953 | 4030 ft | 182 kts | 94° |
| 2026-05-04 16:58 | 53.45194 | -6.55826 | 3552 ft | 173 kts | 92° |
| 2026-05-04 16:58 | 53.45089 | -6.53813 | 3328 ft | 172 kts | 92° |
| 2026-05-04 16:59 | 53.44880 | -6.49831 | 2858 ft | 170 kts | 92° |
| 2026-05-04 17:00 | 53.44473 | -6.42160 | 1954 ft | 151 kts | 92° |
| 2026-05-04 17:00 | 53.44207 | -6.37175 | 1376 ft | 138 kts | 90° |
| 2026-05-04 17:01 | 53.44035 | -6.33969 | 986 ft | 137 kts | 94° |
| 2026-05-04 17:01 | 53.43874 | -6.30787 | 569 ft | 136 kts | 96° |
| 2026-05-04 17:02 | 53.43698 | -6.27667 | 218 ft | 133 kts | 98° |
| 2026-05-04 17:02 | 53.43579 | -6.25578 | 211 ft | 41 kts | 95° |
| 2026-05-04 17:03 | 53.43510 | -6.25166 | 215 ft | 30 kts | 120° |
| 2026-05-04 17:03 | 53.43424 | -6.24977 | 211 ft | 15 kts | 162° |
| 2026-05-04 17:03 | 53.43389 | -6.25237 | 217 ft | 13 kts | 275° |
| 2026-05-04 17:04 | 53.43404 | -6.25502 | 213 ft | 10 kts | 275° |
| 2026-05-04 17:04 | 53.43301 | -6.25610 | 213 ft | 16 kts | 158° |
| 2026-05-04 17:05 | 53.43077 | -6.25446 | 214 ft | 19 kts | 156° |
| 2026-05-04 17:05 | 53.42812 | -6.25256 | 211 ft | 20 kts | 157° |
| 2026-05-04 17:06 | 53.42591 | -6.25028 | 211 ft | 20 kts | 156° |
| 2026-05-04 17:06 | 53.42458 | -6.24931 | 219 ft | 21 kts | 157° |
| 2026-05-04 17:07 | 53.42194 | -6.24731 | 213 ft | 19 kts | 140° |
| 2026-05-04 17:07 | 53.42174 | -6.24599 | 211 ft | 19 kts | 95° |
| 2026-05-04 17:07 | 53.42158 | -6.24293 | 211 ft | 17 kts | 86° |
| 2026-05-04 17:07 | 53.42227 | -6.24152 | 211 ft | 15 kts | 37° |
| 2026-05-04 17:08 | 53.42315 | -6.24095 | 211 ft | 13 kts | 30° |
| 2026-05-04 17:08 | 53.42390 | -6.24094 | 213 ft | 5 kts | 315° |
| 2026-05-04 17:08 | 53.42409 | -6.24127 | 219 ft | 2 kts | 315° |
| 2026-05-04 17:09 | 53.42413 | -6.24133 | 211 ft | 0 kts | 315° |
| 2026-05-04 17:09 | 53.42414 | -6.24134 | 211 ft | 0 kts | 315° |